Thursday, May 24, 2018, 4:27 AM GMT
Back to Local

CWFQ, Frelighsburg

Location: , , Canada Lat: 45.05
Local Time: 4:27 AM GMT ( 4:27 GMT) Lon: -72.833
Time Zone: GMT Elev: 498 ft

Show me the last for .
Show Coded

Time T Td Feel RH Dir Speed Gust Alt SLP Vis Weather Sky Remarks
2018-05-24 04:00 57 27 - 30 330° 3 - - 29.99 0 None
2018-05-24 03:00 56 26 - 31 340° 2 - - 29.98 0 None
2018-05-24 02:00 56 35 - 44 50° 1 - - 29.98 0 None
2018-05-24 01:00 59 40 - 48 50° 1 - - 29.96 0 None
2018-05-24 00:00 62 42 - 46 10° 7 - - 29.95 0 None
2018-05-23 23:00 65 51 - 60 340° 5 - - 29.93 0 None
2018-05-23 22:00 67 49 - 53 340° 6 - - 29.91 0 None
2018-05-23 21:00 67 51 - 54 10° 3 - - 29.91 0 None
2018-05-23 20:00 66 52 - 60 350° 7 - - 29.90 0 None
2018-05-23 19:00 66 54 - 66 350° 8 - - 29.92 0 None
2018-05-23 18:00 64 54 - 70 340° 9 - - 29.91 0 None
2018-05-23 17:00 66 56 - 69 320° 7 - - 29.90 0 None
2018-05-23 16:00 64 57 - 78 320° 6 - - 29.90 0 None
2018-05-23 15:00 62 54 - 74 300° 5 - - 29.90 0 None
2018-05-23 14:00 62 53 - 72 270° 5 - - 29.90 0 None
2018-05-23 13:00 59 53 - 81 190° 5 - - 29.90 0 None
2018-05-23 12:00 56 54 - 91 190° 5 - - 29.90 0 None
2018-05-23 11:00 54 53 - 97 210° 3 - - 29.90 0 None
2018-05-23 10:00 54 53 - 98 220° 2 - - 29.88 0 None
2018-05-23 09:00 54 54 - 98 240° 2 - - 29.88 0 None
2018-05-23 08:00 54 54 - 98 300° 2 - - 29.86 0 None
2018-05-23 07:00 53 54 - 104 240° 2 - - 29.85 0 None
2018-05-23 06:00 55 55 - 98 220° 3 - - 29.85 0 None
2018-05-23 05:00 55 55 - 97 220° 1 - - 29.85 0 None

Support USWX by starting your Amazon purchase here.